sensor_id;sensor_type;location;lat;lon;timestamp;pressure;altitude;pressure_sealevel;temperature;humidity
50105;BME280;47690;39.202;-77.198;2024-03-02T00:02:12;101704.66;;;12.08;33.40
50105;BME280;47690;39.202;-77.198;2024-03-02T00:04:48;101702.09;;;12.11;33.64
50105;BME280;47690;39.202;-77.198;2024-03-02T00:07:19;101702.94;;;12.04;33.89
50105;BME280;47690;39.202;-77.198;2024-03-02T00:09:53;101695.13;;;12.02;33.91
50105;BME280;47690;39.202;-77.198;2024-03-02T00:12:22;101690.00;;;12.07;33.63
50105;BME280;47690;39.202;-77.198;2024-03-02T00:14:51;101698.63;;;12.07;33.71
50105;BME280;47690;39.202;-77.198;2024-03-02T00:17:25;101686.56;;;12.09;33.91
50105;BME280;47690;39.202;-77.198;2024-03-02T00:20:11;101676.25;;;12.09;33.66
50105;BME280;47690;39.202;-77.198;2024-03-02T00:22:45;101679.69;;;12.08;33.67
50105;BME280;47690;39.202;-77.198;2024-03-02T00:25:19;101677.97;;;12.09;33.66
50105;BME280;47690;39.202;-77.198;2024-03-02T00:27:49;101676.25;;;12.09;33.70
50105;BME280;47690;39.202;-77.198;2024-03-02T00:30:45;101672.81;;;12.12;34.14
50105;BME280;47690;39.202;-77.198;2024-03-02T00:33:22;101678.81;;;12.09;33.69
50105;BME280;47690;39.202;-77.198;2024-03-02T00:35:53;101675.41;;;12.09;33.86
50105;BME280;47690;39.202;-77.198;2024-03-02T00:38:22;101673.66;;;12.06;33.77
50105;BME280;47690;39.202;-77.198;2024-03-02T00:40:54;101677.06;;;12.00;33.91
50105;BME280;47690;39.202;-77.198;2024-03-02T00:43:58;101668.47;;;12.01;34.40
50105;BME280;47690;39.202;-77.198;2024-03-02T00:46:39;101670.16;;;11.99;34.33
50105;BME280;47690;39.202;-77.198;2024-03-02T00:51:47;101682.22;;;11.97;34.33
50105;BME280;47690;39.202;-77.198;2024-03-02T00:54:23;101676.22;;;11.97;34.31
50105;BME280;47690;39.202;-77.198;2024-03-02T00:57:10;101671.03;;;11.98;34.58
50105;BME280;47690;39.202;-77.198;2024-03-02T00:59:45;101672.75;;;11.98;34.60
50105;BME280;47690;39.202;-77.198;2024-03-02T01:02:16;101659.84;;;11.98;34.54
50105;BME280;47690;39.202;-77.198;2024-03-02T01:04:45;101665.88;;;11.97;34.54
50105;BME280;47690;39.202;-77.198;2024-03-02T01:07:21;101665.88;;;11.95;34.64
50105;BME280;47690;39.202;-77.198;2024-03-02T01:09:49;101656.41;;;11.96;34.83
50105;BME280;47690;39.202;-77.198;2024-03-02T01:12:18;101653.81;;;11.99;34.75
50105;BME280;47690;39.202;-77.198;2024-03-02T01:14:51;101653.84;;;12.00;34.63
50105;BME280;47690;39.202;-77.198;2024-03-02T01:17:20;101657.25;;;12.01;34.76
50105;BME280;47690;39.202;-77.198;2024-03-02T01:19:49;101652.09;;;11.98;34.73
50105;BME280;47690;39.202;-77.198;2024-03-02T01:22:18;101655.53;;;11.95;34.79
50105;BME280;47690;39.202;-77.198;2024-03-02T01:24:54;101649.50;;;11.92;34.99
50105;BME280;47690;39.202;-77.198;2024-03-02T01:27:23;101648.63;;;11.91;35.05
50105;BME280;47690;39.202;-77.198;2024-03-02T01:29:54;101654.66;;;11.92;35.13
50105;BME280;47690;39.202;-77.198;2024-03-02T01:32:22;101650.34;;;11.87;35.04
50105;BME280;47690;39.202;-77.198;2024-03-02T01:34:54;101652.94;;;11.86;35.13
50105;BME280;47690;39.202;-77.198;2024-03-02T01:37:25;101644.31;;;11.84;35.19
50105;BME280;47690;39.202;-77.198;2024-03-02T01:39:56;101641.72;;;11.84;35.39
50105;BME280;47690;39.202;-77.198;2024-03-02T01:42:29;101643.47;;;11.82;35.34
50105;BME280;47690;39.202;-77.198;2024-03-02T01:45:12;101647.75;;;11.83;35.81
50105;BME280;47690;39.202;-77.198;2024-03-02T01:47:43;101644.31;;;11.79;35.42
50105;BME280;47690;39.202;-77.198;2024-03-02T01:50:29;101644.31;;;11.79;35.82
50105;BME280;47690;39.202;-77.198;2024-03-02T01:53:08;101645.16;;;11.78;35.84
50105;BME280;47690;39.202;-77.198;2024-03-02T01:55:39;101652.09;;;11.87;36.25
50105;BME280;47690;39.202;-77.198;2024-03-02T01:58:10;101648.63;;;11.74;35.70
50105;BME280;47690;39.202;-77.198;2024-03-02T02:01:39;101653.75;;;11.75;35.97
50105;BME280;47690;39.202;-77.198;2024-03-02T02:04:17;101656.34;;;11.72;35.99
50105;BME280;47690;39.202;-77.198;2024-03-02T02:06:56;101653.75;;;11.69;36.40
50105;BME280;47690;39.202;-77.198;2024-03-02T02:09:32;101639.97;;;11.67;36.26
50105;BME280;47690;39.202;-77.198;2024-03-02T02:12:19;101641.69;;;11.68;36.64
50105;BME280;47690;39.202;-77.198;2024-03-02T02:14:48;101645.13;;;11.66;36.18
50105;BME280;47690;39.202;-77.198;2024-03-02T02:17:21;101636.56;;;11.67;36.36
50105;BME280;47690;39.202;-77.198;2024-03-02T02:19:49;101629.66;;;11.67;36.56
50105;BME280;47690;39.202;-77.198;2024-03-02T02:22:22;101633.09;;;11.66;36.86
50105;BME280;47690;39.202;-77.198;2024-03-02T02:24:50;101624.47;;;11.66;36.85
50105;BME280;47690;39.202;-77.198;2024-03-02T02:27:20;101632.22;;;11.66;37.06
50105;BME280;47690;39.202;-77.198;2024-03-02T02:29:49;101624.47;;;11.63;37.02
50105;BME280;47690;39.202;-77.198;2024-03-02T02:32:20;101629.63;;;11.61;37.08
50105;BME280;47690;39.202;-77.198;2024-03-02T02:34:54;101621.91;;;11.59;37.37
50105;BME280;47690;39.202;-77.198;2024-03-02T02:37:23;101616.75;;;11.59;37.30
50105;BME280;47690;39.202;-77.198;2024-03-02T02:39:56;101615.84;;;11.57;37.28
50105;BME280;47690;39.202;-77.198;2024-03-02T02:42:27;101611.53;;;11.55;37.78
50105;BME280;47690;39.202;-77.198;2024-03-02T02:45:00;101614.97;;;11.54;37.87
50105;BME280;47690;39.202;-77.198;2024-03-02T02:47:42;101605.53;;;11.50;38.51
50105;BME280;47690;39.202;-77.198;2024-03-02T02:50:18;101602.06;;;11.47;38.74
50105;BME280;47690;39.202;-77.198;2024-03-02T02:52:50;101602.06;;;11.47;38.93
50105;BME280;47690;39.202;-77.198;2024-03-02T02:55:22;101597.78;;;11.48;38.86
50105;BME280;47690;39.202;-77.198;2024-03-02T02:57:50;101600.34;;;11.48;39.51
50105;BME280;47690;39.202;-77.198;2024-03-02T03:00:20;101598.63;;;11.47;39.40
50105;BME280;47690;39.202;-77.198;2024-03-02T03:02:51;101600.34;;;11.48;40.09
50105;BME280;47690;39.202;-77.198;2024-03-02T03:05:21;101585.75;;;11.47;40.07
50105;BME280;47690;39.202;-77.198;2024-03-02T03:07:49;101588.31;;;11.47;39.89
50105;BME280;47690;39.202;-77.198;2024-03-02T03:10:19;101588.31;;;11.47;39.99
50105;BME280;47690;39.202;-77.198;2024-03-02T03:12:51;101596.03;;;11.45;39.84
50105;BME280;47690;39.202;-77.198;2024-03-02T03:15:20;101607.22;;;11.43;40.24
50105;BME280;47690;39.202;-77.198;2024-03-02T03:17:50;101607.22;;;11.43;40.42
50105;BME280;47690;39.202;-77.198;2024-03-02T03:20:28;101618.38;;;11.42;40.47
50105;BME280;47690;39.202;-77.198;2024-03-02T03:22:57;101623.56;;;11.42;40.63
50105;BME280;47690;39.202;-77.198;2024-03-02T03:25:27;101631.28;;;11.40;40.76
50105;BME280;47690;39.202;-77.198;2024-03-02T03:28:10;101636.47;;;11.39;40.87
50105;BME280;47690;39.202;-77.198;2024-03-02T03:30:44;101645.88;;;11.37;40.94
50105;BME280;47690;39.202;-77.198;2024-03-02T03:33:19;101652.78;;;11.36;40.65
50105;BME280;47690;39.202;-77.198;2024-03-02T03:35:49;101651.91;;;11.32;41.40
50105;BME280;47690;39.202;-77.198;2024-03-02T03:38:21;101644.16;;;11.31;41.36
50105;BME280;47690;39.202;-77.198;2024-03-02T03:40:51;101652.72;;;11.28;41.80
50105;BME280;47690;39.202;-77.198;2024-03-02T03:43:20;101651.88;;;11.28;41.61
50105;BME280;47690;39.202;-77.198;2024-03-02T03:45:50;101645.84;;;11.27;41.72
50105;BME280;47690;39.202;-77.198;2024-03-02T03:48:22;101648.44;;;11.24;41.94
50105;BME280;47690;39.202;-77.198;2024-03-02T03:50:54;101646.72;;;11.23;42.41
50105;BME280;47690;39.202;-77.198;2024-03-02T03:53:24;101640.69;;;11.23;42.55
50105;BME280;47690;39.202;-77.198;2024-03-02T03:55:55;101644.13;;;11.23;42.50
50105;BME280;47690;39.202;-77.198;2024-03-02T03:58:24;101646.69;;;11.22;42.30
50105;BME280;47690;39.202;-77.198;2024-03-02T04:00:54;101649.25;;;11.20;42.85
50105;BME280;47690;39.202;-77.198;2024-03-02T04:03:23;101642.38;;;11.17;43.12
50105;BME280;47690;39.202;-77.198;2024-03-02T04:05:54;101634.63;;;11.16;43.13
50105;BME280;47690;39.202;-77.198;2024-03-02T04:08:25;101636.31;;;11.14;43.62
50105;BME280;47690;39.202;-77.198;2024-03-02T04:11:11;101634.63;;;11.17;44.29
50105;BME280;47690;39.202;-77.198;2024-03-02T04:13:43;101627.75;;;11.13;44.05
50105;BME280;47690;39.202;-77.198;2024-03-02T04:16:14;101617.41;;;11.12;43.68
50105;BME280;47690;39.202;-77.198;2024-03-02T04:18:47;101609.69;;;11.09;44.15
50105;BME280;47690;39.202;-77.198;2024-03-02T04:21:19;101606.22;;;11.06;43.94
50105;BME280;47690;39.202;-77.198;2024-03-02T04:23:48;101617.41;;;11.04;44.00
50105;BME280;47690;39.202;-77.198;2024-03-02T04:26:19;101602.75;;;11.00;44.03
50105;BME280;47690;39.202;-77.198;2024-03-02T04:28:53;101593.28;;;10.97;44.08
50105;BME280;47690;39.202;-77.198;2024-03-02T04:31:22;101590.69;;;10.96;44.37
50105;BME280;47690;39.202;-77.198;2024-03-02T04:33:54;101595.84;;;10.94;44.64
50105;BME280;47690;39.202;-77.198;2024-03-02T04:36:23;101581.22;;;10.91;44.50
50105;BME280;47690;39.202;-77.198;2024-03-02T04:38:54;101576.91;;;10.87;44.55
50105;BME280;47690;39.202;-77.198;2024-03-02T04:41:23;101582.03;;;10.79;44.47
50105;BME280;47690;39.202;-77.198;2024-03-02T04:43:53;101578.53;;;10.73;44.58
50105;BME280;47690;39.202;-77.198;2024-03-02T04:46:22;101579.38;;;10.67;44.61
50105;BME280;47690;39.202;-77.198;2024-03-02T04:48:54;101572.50;;;10.63;44.88
50105;BME280;47690;39.202;-77.198;2024-03-02T04:51:27;101566.41;;;10.55;44.90
50105;BME280;47690;39.202;-77.198;2024-03-02T04:53:56;101574.13;;;10.48;45.15
50105;BME280;47690;39.202;-77.198;2024-03-02T04:56:27;101564.63;;;10.44;44.71
50105;BME280;47690;39.202;-77.198;2024-03-02T04:59:19;101566.28;;;10.41;45.23
50105;BME280;47690;39.202;-77.198;2024-03-02T05:01:48;101568.00;;;10.37;44.93
50105;BME280;47690;39.202;-77.198;2024-03-02T05:04:19;101570.53;;;10.35;45.41
50105;BME280;47690;39.202;-77.198;2024-03-02T05:06:48;101565.41;;;10.35;45.47
50105;BME280;47690;39.202;-77.198;2024-03-02T05:09:21;101559.41;;;10.35;45.35
50105;BME280;47690;39.202;-77.198;2024-03-02T05:11:54;101552.50;;;10.35;45.60
50105;BME280;47690;39.202;-77.198;2024-03-02T05:14:49;101543.94;;;10.33;45.74
50105;BME280;47690;39.202;-77.198;2024-03-02T05:17:18;101540.50;;;10.31;45.67
50105;BME280;47690;39.202;-77.198;2024-03-02T05:19:47;101543.91;;;10.32;46.05
50105;BME280;47690;39.202;-77.198;2024-03-02T05:22:16;101540.47;;;10.33;45.77
50105;BME280;47690;39.202;-77.198;2024-03-02T05:24:46;101549.06;;;10.32;45.87
50105;BME280;47690;39.202;-77.198;2024-03-02T05:27:15;101544.75;;;10.31;45.71
50105;BME280;47690;39.202;-77.198;2024-03-02T05:29:47;101541.34;;;10.30;46.37
50105;BME280;47690;39.202;-77.198;2024-03-02T05:32:20;101535.34;;;10.31;46.02
50105;BME280;47690;39.202;-77.198;2024-03-02T05:34:55;101549.06;;;10.32;46.33
50105;BME280;47690;39.202;-77.198;2024-03-02T05:37:24;101528.47;;;10.30;46.56
50105;BME280;47690;39.202;-77.198;2024-03-02T05:39:56;101531.03;;;10.29;46.30
50105;BME280;47690;39.202;-77.198;2024-03-02T05:42:26;101520.66;;;10.22;46.62
50105;BME280;47690;39.202;-77.198;2024-03-02T05:44:56;101518.91;;;10.18;46.26
50105;BME280;47690;39.202;-77.198;2024-03-02T05:47:25;101518.09;;;10.19;46.61
50105;BME280;47690;39.202;-77.198;2024-03-02T05:49:56;101507.78;;;10.19;46.74
50105;BME280;47690;39.202;-77.198;2024-03-02T05:52:26;101518.09;;;10.19;46.74
50105;BME280;47690;39.202;-77.198;2024-03-02T05:55:11;101506.06;;;10.20;47.14
50105;BME280;47690;39.202;-77.198;2024-03-02T05:57:41;101497.44;;;10.13;46.46
50105;BME280;47690;39.202;-77.198;2024-03-02T06:00:27;101500.88;;;10.15;46.80
50105;BME280;47690;39.202;-77.198;2024-03-02T06:02:56;101498.28;;;10.14;46.82
50105;BME280;47690;39.202;-77.198;2024-03-02T06:05:26;101488.00;;;10.14;47.22
50105;BME280;47690;39.202;-77.198;2024-03-02T06:07:55;101486.25;;;10.13;47.10
50105;BME280;47690;39.202;-77.198;2024-03-02T06:10:23;101485.41;;;10.14;47.05
50105;BME280;47690;39.202;-77.198;2024-03-02T06:12:55;101482.00;;;10.13;47.21
50105;BME280;47690;39.202;-77.198;2024-03-02T06:15:24;101472.56;;;10.12;47.14
50105;BME280;47690;39.202;-77.198;2024-03-02T06:18:00;101467.38;;;10.14;47.37
50105;BME280;47690;39.202;-77.198;2024-03-02T06:20:39;101464.84;;;10.15;47.29
50105;BME280;47690;39.202;-77.198;2024-03-02T06:23:10;101468.25;;;10.14;47.42
50105;BME280;47690;39.202;-77.198;2024-03-02T06:25:40;101460.53;;;10.13;47.54
50105;BME280;47690;39.202;-77.198;2024-03-02T06:28:10;101465.66;;;10.13;47.33
50105;BME280;47690;39.202;-77.198;2024-03-02T06:30:41;101459.66;;;10.14;47.70
50105;BME280;47690;39.202;-77.198;2024-03-02T06:33:14;101458.81;;;10.11;47.68
50105;BME280;47690;39.202;-77.198;2024-03-02T06:35:46;101449.31;;;10.07;47.34
50105;BME280;47690;39.202;-77.198;2024-03-02T06:38:16;101445.88;;;10.05;47.88
50105;BME280;47690;39.202;-77.198;2024-03-02T06:40:45;101444.16;;;10.04;47.71
50105;BME280;47690;39.202;-77.198;2024-03-02T06:43:14;101439.84;;;10.02;47.97
50105;BME280;47690;39.202;-77.198;2024-03-02T06:45:43;101433.84;;;9.96;47.44
50105;BME280;47690;39.202;-77.198;2024-03-02T06:48:15;101431.25;;;9.96;47.83
50105;BME280;47690;39.202;-77.198;2024-03-02T06:50:48;101422.69;;;9.97;48.56
50105;BME280;47690;39.202;-77.198;2024-03-02T06:53:20;101414.94;;;9.94;48.08
50105;BME280;47690;39.202;-77.198;2024-03-02T06:55:50;101426.97;;;9.94;48.16
50105;BME280;47690;39.202;-77.198;2024-03-02T06:58:18;101416.66;;;9.94;47.99
50105;BME280;47690;39.202;-77.198;2024-03-02T07:00:50;101415.78;;;9.93;48.24
50105;BME280;47690;39.202;-77.198;2024-03-02T07:03:21;101413.22;;;9.93;48.21
50105;BME280;47690;39.202;-77.198;2024-03-02T07:05:52;101399.50;;;9.93;48.18
50105;BME280;47690;39.202;-77.198;2024-03-02T07:08:22;101384.06;;;9.93;48.44
50105;BME280;47690;39.202;-77.198;2024-03-02T07:10:54;101376.31;;;9.94;48.65
50105;BME280;47690;39.202;-77.198;2024-03-02T07:13:23;101366.88;;;9.92;48.61
50105;BME280;47690;39.202;-77.198;2024-03-02T07:15:58;101372.03;;;9.93;48.51
50105;BME280;47690;39.202;-77.198;2024-03-02T07:18:42;101364.31;;;9.93;48.86
50105;BME280;47690;39.202;-77.198;2024-03-02T07:21:20;101360.00;;;9.89;48.94
50105;BME280;47690;39.202;-77.198;2024-03-02T07:23:53;101354.00;;;9.89;48.78
50105;BME280;47690;39.202;-77.198;2024-03-02T07:26:22;101346.25;;;9.87;48.71
50105;BME280;47690;39.202;-77.198;2024-03-02T07:28:55;101344.50;;;9.84;48.72
50105;BME280;47690;39.202;-77.198;2024-03-02T07:31:26;101346.25;;;9.84;48.78
50105;BME280;47690;39.202;-77.198;2024-03-02T07:33:55;101335.06;;;9.79;49.01
50105;BME280;47690;39.202;-77.198;2024-03-02T07:36:25;101327.34;;;9.76;49.19
50105;BME280;47690;39.202;-77.198;2024-03-02T07:38:54;101325.59;;;9.72;48.98
50105;BME280;47690;39.202;-77.198;2024-03-02T07:41:22;101317.00;;;9.69;49.06
50105;BME280;47690;39.202;-77.198;2024-03-02T07:43:53;101316.16;;;9.70;49.25
50105;BME280;47690;39.202;-77.198;2024-03-02T07:46:26;101312.72;;;9.72;49.43
50105;BME280;47690;39.202;-77.198;2024-03-02T07:48:55;101300.72;;;9.72;49.49
50105;BME280;47690;39.202;-77.198;2024-03-02T07:51:25;101306.72;;;9.71;49.16
50105;BME280;47690;39.202;-77.198;2024-03-02T07:53:55;101296.41;;;9.69;49.12
50105;BME280;47690;39.202;-77.198;2024-03-02T07:56:25;101300.72;;;9.67;49.39
50105;BME280;47690;39.202;-77.198;2024-03-02T07:58:55;101292.94;;;9.64;49.25
50105;BME280;47690;39.202;-77.198;2024-03-02T08:01:25;101291.22;;;9.62;49.43
50105;BME280;47690;39.202;-77.198;2024-03-02T08:03:54;101286.94;;;9.61;49.38
50105;BME280;47690;39.202;-77.198;2024-03-02T08:06:27;101279.19;;;9.56;49.53
50105;BME280;47690;39.202;-77.198;2024-03-02T08:09:11;101284.34;;;9.56;49.93
50105;BME280;47690;39.202;-77.198;2024-03-02T08:11:44;101277.44;;;9.52;50.19
50105;BME280;47690;39.202;-77.198;2024-03-02T08:14:14;101270.59;;;9.55;49.71
50105;BME280;47690;39.202;-77.198;2024-03-02T08:16:43;101275.75;;;9.55;49.97
50105;BME280;47690;39.202;-77.198;2024-03-02T08:19:12;101266.31;;;9.53;49.65
50105;BME280;47690;39.202;-77.198;2024-03-02T08:21:46;101263.72;;;9.47;50.19
50105;BME280;47690;39.202;-77.198;2024-03-02T08:24:17;101261.97;;;9.42;49.92
50105;BME280;47690;39.202;-77.198;2024-03-02T08:26:46;101265.38;;;9.37;50.33
50105;BME280;47690;39.202;-77.198;2024-03-02T08:29:18;101262.78;;;9.35;50.55
50105;BME280;47690;39.202;-77.198;2024-03-02T08:31:51;101275.66;;;9.37;50.31
50105;BME280;47690;39.202;-77.198;2024-03-02T08:34:22;101266.22;;;9.37;50.37
50105;BME280;47690;39.202;-77.198;2024-03-02T08:36:51;101269.66;;;9.39;50.29
50105;BME280;47690;39.202;-77.198;2024-03-02T08:39:22;101262.81;;;9.38;50.58
50105;BME280;47690;39.202;-77.198;2024-03-02T08:41:50;101260.25;;;9.38;50.44
50105;BME280;47690;39.202;-77.198;2024-03-02T08:44:19;101244.78;;;9.40;51.03
50105;BME280;47690;39.202;-77.198;2024-03-02T08:46:49;101252.53;;;9.41;50.86
50105;BME280;47690;39.202;-77.198;2024-03-02T08:49:18;101249.97;;;9.41;50.80
50105;BME280;47690;39.202;-77.198;2024-03-02T08:51:48;101247.38;;;9.45;50.55
50105;BME280;47690;39.202;-77.198;2024-03-02T08:54:24;101237.97;;;9.43;50.60
50105;BME280;47690;39.202;-77.198;2024-03-02T08:56:53;101229.38;;;9.45;50.71
50105;BME280;47690;39.202;-77.198;2024-03-02T08:59:23;101223.38;;;9.42;50.70
50105;BME280;47690;39.202;-77.198;2024-03-02T09:01:54;101216.53;;;9.41;51.05
50105;BME280;47690;39.202;-77.198;2024-03-02T09:04:26;101217.38;;;9.43;50.83
50105;BME280;47690;39.202;-77.198;2024-03-02T09:07:11;101207.97;;;9.42;50.59
50105;BME280;47690;39.202;-77.198;2024-03-02T09:09:43;101205.34;;;9.35;50.71
50105;BME280;47690;39.202;-77.198;2024-03-02T09:12:14;101201.91;;;9.33;51.19
50105;BME280;47690;39.202;-77.198;2024-03-02T09:14:45;101209.63;;;9.31;51.34
50105;BME280;47690;39.202;-77.198;2024-03-02T09:17:17;101214.78;;;9.31;51.10
50105;BME280;47690;39.202;-77.198;2024-03-02T09:19:46;101209.59;;;9.28;51.25
50105;BME280;47690;39.202;-77.198;2024-03-02T09:22:16;101198.47;;;9.27;51.60
50105;BME280;47690;39.202;-77.198;2024-03-02T09:24:45;101193.31;;;9.26;51.55
50105;BME280;47690;39.202;-77.198;2024-03-02T09:27:14;101185.56;;;9.24;51.66
50105;BME280;47690;39.202;-77.198;2024-03-02T09:29:45;101184.72;;;9.25;51.59
50105;BME280;47690;39.202;-77.198;2024-03-02T09:32:18;101183.03;;;9.26;51.50
50105;BME280;47690;39.202;-77.198;2024-03-02T09:34:47;101179.63;;;9.32;51.65
50105;BME280;47690;39.202;-77.198;2024-03-02T09:37:17;101168.47;;;9.29;51.51
50105;BME280;47690;39.202;-77.198;2024-03-02T09:39:46;101159.88;;;9.26;51.64
50105;BME280;47690;39.202;-77.198;2024-03-02T09:42:17;101163.28;;;9.20;51.42
50105;BME280;47690;39.202;-77.198;2024-03-02T09:44:48;101153.84;;;9.18;51.77
50105;BME280;47690;39.202;-77.198;2024-03-02T09:47:17;101151.28;;;9.18;51.54
50105;BME280;47690;39.202;-77.198;2024-03-02T09:49:46;101138.41;;;9.16;51.58
50105;BME280;47690;39.202;-77.198;2024-03-02T09:52:17;101138.44;;;9.19;52.03
50105;BME280;47690;39.202;-77.198;2024-03-02T09:54:47;101126.41;;;9.15;51.45
50105;BME280;47690;39.202;-77.198;2024-03-02T09:57:17;101117.81;;;9.08;51.73
50105;BME280;47690;39.202;-77.198;2024-03-02T09:59:45;101120.34;;;9.02;51.74
50105;BME280;47690;39.202;-77.198;2024-03-02T10:02:16;101117.75;;;9.00;51.98
50105;BME280;47690;39.202;-77.198;2024-03-02T10:04:49;101115.19;;;9.00;51.89
50105;BME280;47690;39.202;-77.198;2024-03-02T10:07:20;101112.59;;;8.99;52.02
50105;BME280;47690;39.202;-77.198;2024-03-02T10:09:49;101104.03;;;9.00;51.97
50105;BME280;47690;39.202;-77.198;2024-03-02T10:12:19;101098.91;;;8.97;52.64
50105;BME280;47690;39.202;-77.198;2024-03-02T10:14:47;101097.19;;;8.99;52.50
50105;BME280;47690;39.202;-77.198;2024-03-02T10:17:19;101084.34;;;8.97;52.54
50105;BME280;47690;39.202;-77.198;2024-03-02T10:19:47;101101.47;;;8.97;52.42
50105;BME280;47690;39.202;-77.198;2024-03-02T10:22:17;101100.59;;;8.93;52.55
50105;BME280;47690;39.202;-77.198;2024-03-02T10:24:45;101101.47;;;8.94;52.60
50105;BME280;47690;39.202;-77.198;2024-03-02T10:27:26;101076.59;;;8.93;52.96
50105;BME280;47690;39.202;-77.198;2024-03-02T10:29:57;101072.31;;;8.92;53.28
50105;BME280;47690;39.202;-77.198;2024-03-02T10:32:27;101074.91;;;8.93;53.05
50105;BME280;47690;39.202;-77.198;2024-03-02T10:34:58;101071.44;;;8.90;53.25
50105;BME280;47690;39.202;-77.198;2024-03-02T10:37:27;101073.16;;;8.89;53.26
50105;BME280;47690;39.202;-77.198;2024-03-02T10:39:57;101074.03;;;8.91;53.42
50105;BME280;47690;39.202;-77.198;2024-03-02T10:42:25;101072.31;;;8.93;53.43
50105;BME280;47690;39.202;-77.198;2024-03-02T10:44:55;101064.63;;;8.90;53.68
50105;BME280;47690;39.202;-77.198;2024-03-02T10:47:26;101055.22;;;8.97;53.55
50105;BME280;47690;39.202;-77.198;2024-03-02T10:49:59;101055.22;;;9.01;53.58
50105;BME280;47690;39.202;-77.198;2024-03-02T10:52:40;101043.25;;;9.02;53.57
50105;BME280;47690;39.202;-77.198;2024-03-02T10:55:11;101044.09;;;9.02;53.94
50105;BME280;47690;39.202;-77.198;2024-03-02T10:57:53;101032.13;;;9.03;54.52
50105;BME280;47690;39.202;-77.198;2024-03-02T11:00:25;101036.38;;;9.02;54.05
50105;BME280;47690;39.202;-77.198;2024-03-02T11:03:09;101030.38;;;9.00;54.43
50105;BME280;47690;39.202;-77.198;2024-03-02T11:05:44;101032.13;;;9.03;53.88
50105;BME280;47690;39.202;-77.198;2024-03-02T11:08:18;101024.41;;;9.03;54.37
50105;BME280;47690;39.202;-77.198;2024-03-02T11:11:07;101015.00;;;9.02;54.91
50105;BME280;47690;39.202;-77.198;2024-03-02T11:13:49;101003.81;;;9.00;55.06
50105;BME280;47690;39.202;-77.198;2024-03-02T11:16:39;101003.84;;;9.01;55.46
50105;BME280;47690;39.202;-77.198;2024-03-02T11:19:12;101001.25;;;9.01;54.77
50105;BME280;47690;39.202;-77.198;2024-03-02T11:21:45;100991.00;;;9.05;54.64
50105;BME280;47690;39.202;-77.198;2024-03-02T11:26:53;100990.13;;;9.04;54.64
50105;BME280;47690;39.202;-77.198;2024-03-02T11:29:43;100997.84;;;9.07;55.64
50105;BME280;47690;39.202;-77.198;2024-03-02T11:32:22;100985.84;;;9.06;55.18
50105;BME280;47690;39.202;-77.198;2024-03-02T11:34:52;100985.88;;;9.09;54.79
50105;BME280;47690;39.202;-77.198;2024-03-02T11:37:24;100991.03;;;9.12;55.25
50105;BME280;47690;39.202;-77.198;2024-03-02T11:39:53;100984.19;;;9.13;55.29
50105;BME280;47690;39.202;-77.198;2024-03-02T11:42:25;100984.16;;;9.14;55.23
50105;BME280;47690;39.202;-77.198;2024-03-02T11:44:56;100977.31;;;9.18;55.30
50105;BME280;47690;39.202;-77.198;2024-03-02T11:47:31;100966.19;;;9.22;55.97
50105;BME280;47690;39.202;-77.198;2024-03-02T11:50:09;100968.78;;;9.24;55.68
50105;BME280;47690;39.202;-77.198;2024-03-02T11:52:42;100968.78;;;9.24;55.26
50105;BME280;47690;39.202;-77.198;2024-03-02T11:55:11;100967.06;;;9.24;55.55
50105;BME280;47690;39.202;-77.198;2024-03-02T11:57:44;100961.94;;;9.27;55.70
50105;BME280;47690;39.202;-77.198;2024-03-02T12:00:19;100961.94;;;9.31;56.09
50105;BME280;47690;39.202;-77.198;2024-03-02T12:03:04;100959.34;;;9.31;56.27
50105;BME280;47690;39.202;-77.198;2024-03-02T12:05:42;100949.91;;;9.33;56.20
50105;BME280;47690;39.202;-77.198;2024-03-02T12:08:15;100943.09;;;9.33;56.00
50105;BME280;47690;39.202;-77.198;2024-03-02T12:10:56;100941.38;;;9.38;56.64
50105;BME280;47690;39.202;-77.198;2024-03-02T12:13:25;100942.22;;;9.40;56.36
50105;BME280;47690;39.202;-77.198;2024-03-02T12:15:56;100939.66;;;9.43;56.48
50105;BME280;47690;39.202;-77.198;2024-03-02T12:18:43;100930.22;;;9.42;56.92
50105;BME280;47690;39.202;-77.198;2024-03-02T12:21:14;100940.53;;;9.49;56.01
50105;BME280;47690;39.202;-77.198;2024-03-02T12:23:45;100945.66;;;9.49;56.47
50105;BME280;47690;39.202;-77.198;2024-03-02T12:26:15;100950.81;;;9.49;56.26
50105;BME280;47690;39.202;-77.198;2024-03-02T12:28:44;100960.22;;;9.48;56.56
50105;BME280;47690;39.202;-77.198;2024-03-02T12:31:15;100961.94;;;9.48;56.67
50105;BME280;47690;39.202;-77.198;2024-03-02T12:33:46;100961.94;;;9.45;56.43
50105;BME280;47690;39.202;-77.198;2024-03-02T12:36:17;100967.09;;;9.46;56.69
50105;BME280;47690;39.202;-77.198;2024-03-02T12:38:48;100962.81;;;9.45;56.72
50105;BME280;47690;39.202;-77.198;2024-03-02T12:41:17;100964.50;;;9.46;56.59
50105;BME280;47690;39.202;-77.198;2024-03-02T12:43:46;100967.09;;;9.51;57.25
50105;BME280;47690;39.202;-77.198;2024-03-02T12:46:15;100955.97;;;9.55;57.13
50105;BME280;47690;39.202;-77.198;2024-03-02T12:48:44;100947.38;;;9.56;56.93
50105;BME280;47690;39.202;-77.198;2024-03-02T12:51:16;100932.78;;;9.58;57.58
50105;BME280;47690;39.202;-77.198;2024-03-02T12:53:45;100925.94;;;9.59;57.37
50105;BME280;47690;39.202;-77.198;2024-03-02T12:56:23;100909.66;;;9.60;57.46
50105;BME280;47690;39.202;-77.198;2024-03-02T12:58:55;100896.78;;;9.60;57.81
50105;BME280;47690;39.202;-77.198;2024-03-02T13:01:25;100889.94;;;9.59;57.77
50105;BME280;47690;39.202;-77.198;2024-03-02T13:03:55;100889.94;;;9.59;57.99
50105;BME280;47690;39.202;-77.198;2024-03-02T13:06:25;100886.50;;;9.60;58.07
50105;BME280;47690;39.202;-77.198;2024-03-02T13:09:10;100881.38;;;9.61;57.89